Time;durP1;ratioP1;P1;durP2;ratioP2;P2;SDS_P1;SDS_P2;PMS_P1;PMS_P2;Temp;Humidity;BMP_temperature;BMP_pressure;BME280_temperature;BME280_humidity;BME280_pressure;Samples;Min_cycle;Max_cycle;Signal;HPM_P1;HPM_P2
2021/07/03 00:01:04;;;;;;;28.05;18.80;;;;;;;;;;5099401;28;20192;-72
2021/07/03 00:06:12;;;;;;;29.33;18.98;;;;;;;;;;5291969;23;20290;-72
2021/07/03 00:08:37;;;;;;;27.02;18.77;;;;;;;;;;4991842;28;20270;-72
2021/07/03 00:11:04;;;;;;;27.55;18.15;;;;;;;;;;4988563;28;20172;-72
2021/07/03 00:13:29;;;;;;;28.67;18.30;;;;;;;;;;4987482;28;20191;-71
2021/07/03 00:15:55;;;;;;;27.23;17.50;;;;;;;;;;5002542;28;20205;-71
2021/07/03 00:18:20;;;;;;;22.13;16.30;;;;;;;;;;5006968;28;20190;-71
2021/07/03 00:20:45;;;;;;;21.40;15.38;;;;;;;;;;4980319;23;20232;-71
2021/07/03 00:23:10;;;;;;;23.70;16.02;;;;;;;;;;4969428;28;20208;-70
2021/07/03 00:25:36;;;;;;;25.52;17.02;;;;;;;;;;4968409;28;20215;-71
2021/07/03 00:28:02;;;;;;;28.20;18.17;;;;;;;;;;4969045;28;20199;-71
2021/07/03 00:30:27;;;;;;;27.73;19.33;;;;;;;;;;4964859;28;20255;-71
2021/07/03 00:32:52;;;;;;;32.35;21.67;;;;;;;;;;4954498;28;20275;-71
2021/07/03 00:35:17;;;;;;;30.90;21.33;;;;;;;;;;4937630;28;20184;-71
2021/07/03 00:37:43;;;;;;;29.33;20.52;;;;;;;;;;4947512;28;20205;-71
2021/07/03 00:40:08;;;;;;;36.65;22.77;;;;;;;;;;4950907;28;20642;-71
2021/07/03 00:42:34;;;;;;;40.78;25.33;;;;;;;;;;4935979;28;20638;-71
2021/07/03 00:44:59;;;;;;;32.38;22.50;;;;;;;;;;4950960;28;20613;-71
2021/07/03 00:47:24;;;;;;;31.83;23.20;;;;;;;;;;4946150;28;20702;-73
2021/07/03 00:49:49;;;;;;;36.78;23.75;;;;;;;;;;4947842;28;20689;-71
2021/07/03 00:52:15;;;;;;;37.72;22.75;;;;;;;;;;4942043;28;20189;-72
2021/07/03 00:54:41;;;;;;;34.35;22.77;;;;;;;;;;4951304;28;20244;-71
2021/07/03 00:57:06;;;;;;;39.97;24.42;;;;;;;;;;4952823;28;20177;-73
2021/07/03 00:59:33;;;;;;;39.08;24.98;;;;;;;;;;4941034;28;20673;-73
2021/07/03 01:01:58;;;;;;;36.30;24.50;;;;;;;;;;4949843;28;20567;-71
2021/07/03 01:04:23;;;;;;;40.22;25.98;;;;;;;;;;4952526;28;20665;-70
2021/07/03 01:06:48;;;;;;;41.25;24.30;;;;;;;;;;4954326;28;20762;-70
2021/07/03 01:09:14;;;;;;;36.45;24.10;;;;;;;;;;4951293;28;20185;-71
2021/07/03 01:11:39;;;;;;;38.38;24.38;;;;;;;;;;4960615;28;20567;-71
2021/07/03 01:14:04;;;;;;;36.50;23.27;;;;;;;;;;4954884;28;20199;-71
2021/07/03 01:16:29;;;;;;;44.00;25.85;;;;;;;;;;4947440;28;20184;-71
2021/07/03 01:18:54;;;;;;;40.10;25.45;;;;;;;;;;4950302;28;20697;-71
2021/07/03 01:21:20;;;;;;;32.90;22.08;;;;;;;;;;4952904;28;20243;-71
2021/07/03 01:23:45;;;;;;;40.28;25.83;;;;;;;;;;4953537;28;20181;-71
2021/07/03 01:26:11;;;;;;;45.13;29.35;;;;;;;;;;4957930;28;20287;-71
2021/07/03 01:28:36;;;;;;;40.00;25.33;;;;;;;;;;4957992;28;20434;-71
2021/07/03 01:31:01;;;;;;;42.63;28.08;;;;;;;;;;4954541;28;20230;-70
2021/07/03 01:33:27;;;;;;;42.38;28.80;;;;;;;;;;4954998;28;20663;-71
2021/07/03 01:35:52;;;;;;;39.88;27.08;;;;;;;;;;4953432;28;20596;-71
2021/07/03 01:38:18;;;;;;;47.17;30.02;;;;;;;;;;4947197;28;20184;-71
2021/07/03 01:40:44;;;;;;;47.17;25.70;;;;;;;;;;4951995;28;20732;-71
2021/07/03 01:43:10;;;;;;;42.30;28.13;;;;;;;;;;4961157;28;20189;-70
2021/07/03 01:45:35;;;;;;;43.33;25.95;;;;;;;;;;4935451;29;20709;-71
2021/07/03 01:48:00;;;;;;;47.65;27.77;;;;;;;;;;4949840;28;20308;-70
2021/07/03 01:50:25;;;;;;;44.60;27.25;;;;;;;;;;4947674;28;20268;-71
2021/07/03 01:52:50;;;;;;;43.72;26.73;;;;;;;;;;4948757;28;20730;-71
2021/07/03 01:55:16;;;;;;;44.70;28.30;;;;;;;;;;4948610;28;20196;-71
2021/07/03 01:57:41;;;;;;;43.45;28.10;;;;;;;;;;4954488;28;20665;-71
2021/07/03 02:00:08;;;;;;;40.65;28.20;;;;;;;;;;4947021;28;20233;-71
2021/07/03 02:02:33;;;;;;;53.67;33.30;;;;;;;;;;4949611;28;20239;-70
2021/07/03 02:04:58;;;;;;;54.67;31.02;;;;;;;;;;4949048;28;20193;-71
2021/07/03 02:07:23;;;;;;;54.13;32.33;;;;;;;;;;4957113;28;20563;-71
2021/07/03 02:09:49;;;;;;;51.00;29.58;;;;;;;;;;4953317;28;20549;-71
2021/07/03 02:12:14;;;;;;;57.88;32.90;;;;;;;;;;4950523;28;20622;-70
2021/07/03 02:14:39;;;;;;;64.22;36.25;;;;;;;;;;4948527;28;20192;-71
2021/07/03 02:17:04;;;;;;;63.65;36.90;;;;;;;;;;4951656;28;20185;-71
2021/07/03 02:19:29;;;;;;;60.83;34.17;;;;;;;;;;4954855;28;20216;-71
2021/07/03 02:21:54;;;;;;;61.78;35.20;;;;;;;;;;4951172;28;20177;-71
2021/07/03 02:24:20;;;;;;;71.83;37.93;;;;;;;;;;4953738;28;20232;-71
2021/07/03 02:26:45;;;;;;;67.22;37.67;;;;;;;;;;4951340;28;20455;-71
2021/07/03 02:29:10;;;;;;;59.53;34.78;;;;;;;;;;4950832;28;20231;-71
2021/07/03 02:31:35;;;;;;;65.38;37.42;;;;;;;;;;4951473;28;20209;-71
2021/07/03 02:34:00;;;;;;;64.88;39.30;;;;;;;;;;4950237;28;20181;-71
2021/07/03 02:36:26;;;;;;;80.07;42.80;;;;;;;;;;4950522;28;20181;-71
2021/07/03 02:38:51;;;;;;;81.05;42.88;;;;;;;;;;4950601;28;20185;-71
2021/07/03 02:41:16;;;;;;;85.57;44.83;;;;;;;;;;4953517;28;20205;-71
2021/07/03 02:43:41;;;;;;;96.20;46.88;;;;;;;;;;4950412;28;20172;-71
2021/07/03 02:46:07;;;;;;;82.35;44.17;;;;;;;;;;4949690;28;20227;-71
2021/07/03 02:48:32;;;;;;;92.03;46.40;;;;;;;;;;4952635;28;20178;-71
2021/07/03 02:50:57;;;;;;;87.30;44.58;;;;;;;;;;4951533;28;20193;-71
2021/07/03 02:53:22;;;;;;;85.30;43.60;;;;;;;;;;4958224;28;20665;-71
2021/07/03 02:55:47;;;;;;;84.13;43.58;;;;;;;;;;4952647;28;20208;-73
2021/07/03 02:58:12;;;;;;;84.30;44.37;;;;;;;;;;4958340;28;20235;-72
2021/07/03 03:00:38;;;;;;;95.85;48.08;;;;;;;;;;4942654;28;20462;-70
2021/07/03 03:03:03;;;;;;;77.05;41.40;;;;;;;;;;4955806;28;20192;-73
2021/07/03 03:05:29;;;;;;;92.88;47.42;;;;;;;;;;4955246;28;20445;-73
2021/07/03 03:07:54;;;;;;;82.18;44.65;;;;;;;;;;4950805;28;20173;-73
2021/07/03 03:10:19;;;;;;;75.30;42.42;;;;;;;;;;4956947;28;20667;-73
2021/07/03 03:12:45;;;;;;;79.18;44.35;;;;;;;;;;4958527;28;20188;-73
2021/07/03 03:15:11;;;;;;;75.00;42.08;;;;;;;;;;4941393;28;20182;-73
2021/07/03 03:17:37;;;;;;;75.85;43.60;;;;;;;;;;4966124;28;20181;-73
2021/07/03 03:20:03;;;;;;;68.45;39.42;;;;;;;;;;4963089;28;20303;-73
2021/07/03 03:22:28;;;;;;;74.05;41.47;;;;;;;;;;4956444;28;20216;-73
2021/07/03 03:24:53;;;;;;;79.05;43.65;;;;;;;;;;4955298;28;20227;-73
2021/07/03 03:27:18;;;;;;;82.20;45.60;;;;;;;;;;4964579;28;20809;-73
2021/07/03 03:29:44;;;;;;;78.05;44.00;;;;;;;;;;4955436;28;20224;-72
2021/07/03 03:32:09;;;;;;;80.32;42.72;;;;;;;;;;4954363;28;20178;-70
2021/07/03 03:34:34;;;;;;;76.22;41.80;;;;;;;;;;4959581;28;20615;-70
2021/07/03 03:36:59;;;;;;;71.68;41.42;;;;;;;;;;4943915;28;20185;-73
2021/07/03 03:39:24;;;;;;;70.20;40.95;;;;;;;;;;4960572;28;20224;-73
2021/07/03 03:41:49;;;;;;;74.10;41.53;;;;;;;;;;4946380;28;20181;-72
2021/07/03 03:44:16;;;;;;;75.82;44.13;;;;;;;;;;4950708;28;20176;-73
2021/07/03 03:46:41;;;;;;;73.13;41.60;;;;;;;;;;4951540;28;20287;-73
2021/07/03 03:49:06;;;;;;;76.57;42.35;;;;;;;;;;4961684;28;20322;-73
2021/07/03 03:51:31;;;;;;;69.53;41.40;;;;;;;;;;4957550;28;20181;-73
2021/07/03 03:53:57;;;;;;;79.72;44.97;;;;;;;;;;4958350;28;20657;-73
2021/07/03 03:56:22;;;;;;;76.78;42.05;;;;;;;;;;4958904;28;20653;-73
2021/07/03 03:58:47;;;;;;;78.25;43.13;;;;;;;;;;4958782;28;20184;-73
2021/07/03 04:01:12;;;;;;;73.82;42.88;;;;;;;;;;4951255;28;20221;-73
2021/07/03 04:03:37;;;;;;;70.00;42.83;;;;;;;;;;4947641;28;20192;-73
2021/07/03 04:06:03;;;;;;;74.25;41.63;;;;;;;;;;4952801;28;20197;-73
2021/07/03 04:08:28;;;;;;;74.38;43.47;;;;;;;;;;4957225;28;20177;-73
2021/07/03 04:10:53;;;;;;;76.50;44.08;;;;;;;;;;4957924;28;20557;-70
2021/07/03 04:13:18;;;;;;;67.18;42.35;;;;;;;;;;4941648;28;20212;-70
2021/07/03 04:15:43;;;;;;;76.55;45.70;;;;;;;;;;4958214;28;20185;-71
2021/07/03 04:18:08;;;;;;;71.55;42.95;;;;;;;;;;4950762;28;20186;-70
2021/07/03 04:20:34;;;;;;;72.80;42.50;;;;;;;;;;4950160;28;20215;-71
2021/07/03 04:22:59;;;;;;;66.95;40.58;;;;;;;;;;4945993;28;20197;-73
2021/07/03 04:25:25;;;;;;;71.22;43.85;;;;;;;;;;4959750;28;20247;-73
2021/07/03 04:27:50;;;;;;;64.28;43.70;;;;;;;;;;4939633;28;20833;-70
2021/07/03 04:30:16;;;;;;;64.18;40.30;;;;;;;;;;4948218;28;20198;-73
2021/07/03 04:32:42;;;;;;;59.92;38.78;;;;;;;;;;4941812;28;20188;-73
2021/07/03 04:35:07;;;;;;;58.47;37.40;;;;;;;;;;4954290;28;20646;-73
2021/07/03 04:37:33;;;;;;;55.10;38.38;;;;;;;;;;4952015;28;20271;-73
2021/07/03 04:39:58;;;;;;;54.60;37.65;;;;;;;;;;4952950;28;20200;-73
2021/07/03 04:42:23;;;;;;;54.67;37.28;;;;;;;;;;4951238;28;20185;-70
2021/07/03 04:44:48;;;;;;;50.25;35.67;;;;;;;;;;4952356;28;20321;-70
2021/07/03 04:47:14;;;;;;;52.88;37.88;;;;;;;;;;4952204;28;20597;-70
2021/07/03 04:49:39;;;;;;;51.30;36.33;;;;;;;;;;4960373;28;20224;-70
2021/07/03 04:52:04;;;;;;;47.47;35.97;;;;;;;;;;4953950;28;20518;-70
2021/07/03 04:54:29;;;;;;;51.63;34.90;;;;;;;;;;4943722;29;20176;-73
2021/07/03 04:57:06;;;;;;;45.38;33.50;;;;;;;;;;4949364;28;20185;-70
2021/07/03 04:59:32;;;;;;;43.25;31.40;;;;;;;;;;4951810;28;20212;-70
2021/07/03 05:01:58;;;;;;;41.20;31.30;;;;;;;;;;4948425;28;20173;-70
2021/07/03 05:04:23;;;;;;;41.73;29.57;;;;;;;;;;4942690;28;20195;-70
2021/07/03 05:06:48;;;;;;;37.03;29.90;;;;;;;;;;4946377;28;20463;-70
2021/07/03 05:09:13;;;;;;;38.50;28.60;;;;;;;;;;4950063;28;20446;-72
2021/07/03 05:11:38;;;;;;;38.13;29.23;;;;;;;;;;4953376;28;20178;-70
2021/07/03 05:14:03;;;;;;;38.30;28.67;;;;;;;;;;4955285;28;20991;-70
2021/07/03 05:16:29;;;;;;;39.33;30.20;;;;;;;;;;4947201;29;20534;-70
2021/07/03 05:18:54;;;;;;;39.42;29.73;;;;;;;;;;4952923;28;20184;-70
2021/07/03 05:21:19;;;;;;;39.00;31.37;;;;;;;;;;4952397;28;20312;-70
2021/07/03 05:23:44;;;;;;;37.53;29.48;;;;;;;;;;4944135;28;20864;-71
2021/07/03 05:26:09;;;;;;;40.53;31.27;;;;;;;;;;4950646;28;20196;-70
2021/07/03 05:28:34;;;;;;;40.67;29.90;;;;;;;;;;4953528;28;20431;-70
2021/07/03 05:31:00;;;;;;;38.60;30.17;;;;;;;;;;4949773;28;20458;-70
2021/07/03 05:33:25;;;;;;;37.60;30.98;;;;;;;;;;4958584;28;20462;-71
2021/07/03 05:35:50;;;;;;;38.53;30.90;;;;;;;;;;4948204;28;20610;-73
2021/07/03 05:38:15;;;;;;;40.83;30.63;;;;;;;;;;4956643;28;20574;-73
2021/07/03 05:40:41;;;;;;;38.05;29.70;;;;;;;;;;4954093;28;20201;-70
2021/07/03 05:43:06;;;;;;;36.80;29.75;;;;;;;;;;4951154;28;20638;-70
2021/07/03 05:45:31;;;;;;;36.72;29.85;;;;;;;;;;4960166;28;20176;-70
2021/07/03 05:47:56;;;;;;;39.47;31.48;;;;;;;;;;4948259;28;20232;-73
2021/07/03 05:50:23;;;;;;;36.17;28.55;;;;;;;;;;4949967;28;20219;-73
2021/07/03 05:52:48;;;;;;;39.90;31.67;;;;;;;;;;4955208;28;20224;-70
2021/07/03 05:55:14;;;;;;;36.90;29.85;;;;;;;;;;4942708;28;20205;-70
2021/07/03 05:57:39;;;;;;;39.15;30.50;;;;;;;;;;4957560;28;20186;-70
2021/07/03 06:00:05;;;;;;;37.25;30.75;;;;;;;;;;4951807;28;20674;-70
2021/07/03 06:02:30;;;;;;;36.03;30.73;;;;;;;;;;4953080;28;20654;-70
2021/07/03 06:04:55;;;;;;;41.40;31.00;;;;;;;;;;4940073;28;20180;-73
2021/07/03 06:07:21;;;;;;;41.60;31.43;;;;;;;;;;4946849;28;20526;-71
2021/07/03 06:09:46;;;;;;;34.97;28.17;;;;;;;;;;4950758;28;20453;-70
2021/07/03 06:12:11;;;;;;;34.42;28.58;;;;;;;;;;4948954;28;20453;-70
2021/07/03 06:14:36;;;;;;;36.85;29.95;;;;;;;;;;4949498;28;20174;-70
2021/07/03 06:17:01;;;;;;;48.27;29.97;;;;;;;;;;4950084;28;20184;-69
2021/07/03 06:21:56;;;;;;;31.23;27.45;;;;;;;;;;4953159;28;20247;-70
2021/07/03 06:24:22;;;;;;;34.83;27.65;;;;;;;;;;4959038;28;20646;-69
2021/07/03 06:26:47;;;;;;;33.47;26.20;;;;;;;;;;4960263;28;20217;-72
2021/07/03 06:29:12;;;;;;;30.38;25.08;;;;;;;;;;4962824;28;20483;-69
2021/07/03 06:31:37;;;;;;;30.30;24.73;;;;;;;;;;4958895;28;20211;-70
2021/07/03 06:34:02;;;;;;;31.53;25.30;;;;;;;;;;4955826;28;20938;-70
2021/07/03 06:36:29;;;;;;;29.33;24.73;;;;;;;;;;4972972;28;20434;-71
2021/07/03 06:38:55;;;;;;;28.70;24.20;;;;;;;;;;4956253;28;22750;-71
2021/07/03 06:41:20;;;;;;;29.45;23.73;;;;;;;;;;4960555;28;20212;-71
2021/07/03 06:43:45;;;;;;;27.73;23.67;;;;;;;;;;4959016;28;20192;-71
2021/07/03 06:46:10;;;;;;;26.08;21.25;;;;;;;;;;4959698;28;20540;-68
2021/07/03 06:48:35;;;;;;;27.90;23.07;;;;;;;;;;4957009;28;20176;-70
2021/07/03 06:51:01;;;;;;;25.87;21.47;;;;;;;;;;4959348;28;20460;-69
2021/07/03 06:53:26;;;;;;;24.13;21.52;;;;;;;;;;4960717;28;20422;-70
2021/07/03 06:55:51;;;;;;;27.10;20.77;;;;;;;;;;4958029;28;20220;-69
2021/07/03 06:58:17;;;;;;;25.73;20.50;;;;;;;;;;4956392;28;20221;-70
2021/07/03 07:00:42;;;;;;;28.20;23.98;;;;;;;;;;4954111;28;20200;-69
2021/07/03 07:03:07;;;;;;;24.13;21.63;;;;;;;;;;4954066;28;20572;-69
2021/07/03 07:05:32;;;;;;;26.73;22.73;;;;;;;;;;4949467;28;20275;-69
2021/07/03 07:07:57;;;;;;;26.42;22.10;;;;;;;;;;4957830;28;20450;-69
2021/07/03 07:10:23;;;;;;;24.67;22.08;;;;;;;;;;4965149;28;20312;-70
2021/07/03 07:12:48;;;;;;;25.15;21.10;;;;;;;;;;4958134;28;20263;-70
2021/07/03 07:15:13;;;;;;;23.65;21.08;;;;;;;;;;4951493;28;20188;-70
2021/07/03 07:17:38;;;;;;;24.00;21.33;;;;;;;;;;4937345;28;20181;-70
2021/07/03 07:20:04;;;;;;;23.13;20.47;;;;;;;;;;4951940;28;20324;-70
2021/07/03 07:22:30;;;;;;;23.17;20.38;;;;;;;;;;4954834;28;20443;-70
2021/07/03 07:24:56;;;;;;;22.45;19.98;;;;;;;;;;4956189;28;21560;-70
2021/07/03 07:27:21;;;;;;;23.13;20.67;;;;;;;;;;4958124;28;20929;-69
2021/07/03 07:29:46;;;;;;;24.00;20.80;;;;;;;;;;4957489;28;20690;-70
2021/07/03 07:32:11;;;;;;;23.15;19.48;;;;;;;;;;4955021;28;20267;-70
2021/07/03 07:34:36;;;;;;;21.33;19.10;;;;;;;;;;4955382;28;20652;-69
2021/07/03 07:37:02;;;;;;;21.47;18.13;;;;;;;;;;4958807;28;20445;-69
2021/07/03 07:39:27;;;;;;;21.15;18.90;;;;;;;;;;4957927;28;20434;-70
2021/07/03 07:41:52;;;;;;;20.83;18.17;;;;;;;;;;4963337;28;20169;-69
2021/07/03 07:44:17;;;;;;;20.57;18.20;;;;;;;;;;4956052;28;20189;-69
2021/07/03 07:46:42;;;;;;;20.97;18.33;;;;;;;;;;4961911;28;20465;-69
2021/07/03 07:49:08;;;;;;;21.30;19.07;;;;;;;;;;4956911;28;20880;-70
2021/07/03 07:51:33;;;;;;;22.90;18.90;;;;;;;;;;4956322;28;20454;-70
2021/07/03 07:53:58;;;;;;;21.52;18.33;;;;;;;;;;4958212;28;20698;-69
2021/07/03 07:56:23;;;;;;;17.88;16.08;;;;;;;;;;4956840;28;20172;-70
2021/07/03 07:58:49;;;;;;;17.53;15.57;;;;;;;;;;4954921;28;20185;-71
2021/07/03 08:01:14;;;;;;;17.02;15.32;;;;;;;;;;4955939;28;20896;-69
2021/07/03 08:03:42;;;;;;;17.92;16.02;;;;;;;;;;4963680;28;20219;-69
2021/07/03 08:06:07;;;;;;;20.02;16.27;;;;;;;;;;4960850;28;20204;-69
2021/07/03 08:08:32;;;;;;;17.58;15.75;;;;;;;;;;4954730;28;20183;-69
2021/07/03 08:10:58;;;;;;;16.67;14.87;;;;;;;;;;4956648;28;20199;-68
2021/07/03 08:13:23;;;;;;;17.60;15.20;;;;;;;;;;4958550;28;20907;-69
2021/07/03 08:15:50;;;;;;;18.23;14.43;;;;;;;;;;4957810;28;21869;-68
2021/07/03 08:18:15;;;;;;;16.13;14.40;;;;;;;;;;4951322;28;20172;-68
2021/07/03 08:20:41;;;;;;;17.73;15.20;;;;;;;;;;4955867;28;20226;-69
2021/07/03 08:23:07;;;;;;;16.33;14.30;;;;;;;;;;4955070;28;20180;-68
2021/07/03 08:25:32;;;;;;;16.02;14.35;;;;;;;;;;4958344;28;20259;-69
2021/07/03 08:27:58;;;;;;;14.38;12.88;;;;;;;;;;4952644;28;20196;-70
2021/07/03 08:30:23;;;;;;;15.38;12.93;;;;;;;;;;4957642;28;20669;-69
2021/07/03 08:32:49;;;;;;;15.50;13.45;;;;;;;;;;4957765;28;20182;-70
2021/07/03 08:35:15;;;;;;;18.40;14.13;;;;;;;;;;4959109;28;20196;-67
2021/07/03 08:37:41;;;;;;;17.25;14.00;;;;;;;;;;4955977;28;20185;-70
2021/07/03 08:40:06;;;;;;;13.60;12.02;;;;;;;;;;4968197;28;20211;-70
2021/07/03 08:42:32;;;;;;;16.33;12.57;;;;;;;;;;4955179;28;20189;-70
2021/07/03 08:44:57;;;;;;;16.37;11.33;;;;;;;;;;4948535;28;20680;-69
2021/07/03 08:47:23;;;;;;;15.25;12.38;;;;;;;;;;4957302;28;20508;-70
2021/07/03 08:49:58;;;;;;;13.65;10.82;;;;;;;;;;4957049;28;20258;-69
2021/07/03 08:52:25;;;;;;;12.48;10.90;;;;;;;;;;4952096;28;20187;-69
2021/07/03 08:54:55;;;;;;;13.70;11.82;;;;;;;;;;4956614;28;20584;-70
2021/07/03 08:57:20;;;;;;;13.02;10.25;;;;;;;;;;4953210;28;20239;-69
2021/07/03 08:59:53;;;;;;;12.93;10.13;;;;;;;;;;4967927;28;20196;-69
2021/07/03 09:02:18;;;;;;;12.35;11.10;;;;;;;;;;4952638;28;20184;-69
2021/07/03 09:04:43;;;;;;;11.43;10.30;;;;;;;;;;4957116;28;20180;-68
2021/07/03 09:07:13;;;;;;;13.90;11.53;;;;;;;;;;4954812;28;20219;-69
2021/07/03 09:09:38;;;;;;;13.35;11.57;;;;;;;;;;4953541;28;20230;-69
2021/07/03 09:12:03;;;;;;;11.55;10.23;;;;;;;;;;4957987;28;20180;-70
2021/07/03 09:14:28;;;;;;;13.13;10.50;;;;;;;;;;4956613;28;20654;-69
2021/07/03 09:16:57;;;;;;;11.85;10.70;;;;;;;;;;4967294;28;20175;-68
2021/07/03 09:19:26;;;;;;;11.52;10.05;;;;;;;;;;4949379;28;20251;-69
2021/07/03 09:21:52;;;;;;;12.30;9.52;;;;;;;;;;4954346;28;20188;-69
2021/07/03 09:24:17;;;;;;;11.82;10.63;;;;;;;;;;4953639;28;20195;-70
2021/07/03 09:26:42;;;;;;;11.00;9.50;;;;;;;;;;4957391;28;20696;-70
2021/07/03 09:29:11;;;;;;;12.40;8.90;;;;;;;;;;4951836;28;20446;-70
2021/07/03 09:31:36;;;;;;;9.13;7.80;;;;;;;;;;4952083;28;20285;-69
2021/07/03 09:34:01;;;;;;;10.18;9.15;;;;;;;;;;4956793;28;20263;-70
2021/07/03 09:36:27;;;;;;;9.23;8.32;;;;;;;;;;4957023;28;20178;-70
2021/07/03 09:38:54;;;;;;;10.85;8.05;;;;;;;;;;4954049;28;20188;-70
2021/07/03 09:41:29;;;;;;;8.73;7.82;;;;;;;;;;4952188;28;20202;-70
2021/07/03 09:43:56;;;;;;;10.73;9.70;;;;;;;;;;4954234;28;20188;-68
2021/07/03 09:46:22;;;;;;;11.15;8.73;;;;;;;;;;4952153;28;20208;-69
2021/07/03 09:48:48;;;;;;;8.88;7.93;;;;;;;;;;4955444;28;20180;-69
2021/07/03 09:51:14;;;;;;;7.85;6.60;;;;;;;;;;4951359;28;20224;-70
2021/07/03 09:53:39;;;;;;;8.57;7.63;;;;;;;;;;4954826;28;20646;-69
2021/07/03 09:56:05;;;;;;;8.02;7.22;;;;;;;;;;4955599;28;20434;-69
2021/07/03 09:58:31;;;;;;;7.78;7.07;;;;;;;;;;4955388;28;20548;-70
2021/07/03 10:00:56;;;;;;;8.30;7.50;;;;;;;;;;4950099;28;20212;-68
2021/07/03 10:03:21;;;;;;;10.50;8.53;;;;;;;;;;4955139;28;20774;-69
2021/07/03 10:05:48;;;;;;;9.38;7.70;;;;;;;;;;4947094;28;20434;-67
2021/07/03 10:08:18;;;;;;;9.38;8.30;;;;;;;;;;4955416;28;20208;-70
2021/07/03 10:10:48;;;;;;;9.65;8.38;;;;;;;;;;4962278;28;20197;-70
2021/07/03 10:13:18;;;;;;;10.85;8.63;;;;;;;;;;4956507;28;20692;-70
2021/07/03 10:15:43;;;;;;;10.30;8.27;;;;;;;;;;4958951;28;20184;-70
2021/07/03 10:18:09;;;;;;;9.52;8.38;;;;;;;;;;4959231;28;20615;-70
2021/07/03 10:20:35;;;;;;;9.15;8.35;;;;;;;;;;4967505;28;20223;-70
2021/07/03 10:23:00;;;;;;;8.63;7.72;;;;;;;;;;4965693;28;20180;-69
2021/07/03 10:25:31;;;;;;;9.57;7.38;;;;;;;;;;4959278;28;20342;-70
2021/07/03 10:27:56;;;;;;;10.88;7.68;;;;;;;;;;4958523;28;20580;-70
2021/07/03 10:30:25;;;;;;;7.93;7.13;;;;;;;;;;4959130;28;20192;-70
2021/07/03 10:32:58;;;;;;;8.70;6.78;;;;;;;;;;4959003;28;20272;-68
2021/07/03 10:35:24;;;;;;;11.48;8.07;;;;;;;;;;4964909;28;21121;-70
2021/07/03 10:37:49;;;;;;;8.32;7.50;;;;;;;;;;4956982;28;21792;-70
2021/07/03 10:40:16;;;;;;;8.68;7.40;;;;;;;;;;4956588;28;20205;-69
2021/07/03 10:42:41;;;;;;;12.63;8.80;;;;;;;;;;4953232;28;20193;-70
2021/07/03 10:45:11;;;;;;;12.17;8.90;;;;;;;;;;4963672;28;20181;-70
2021/07/03 10:47:36;;;;;;;10.65;8.40;;;;;;;;;;4958965;28;20453;-70
2021/07/03 10:50:02;;;;;;;9.05;8.05;;;;;;;;;;4956253;28;20211;-70
2021/07/03 10:52:37;;;;;;;11.85;9.18;;;;;;;;;;4955082;28;20567;-70
2021/07/03 10:55:02;;;;;;;10.82;9.65;;;;;;;;;;4959013;28;20222;-70
2021/07/03 10:57:27;;;;;;;11.65;9.32;;;;;;;;;;4956842;28;22375;-71
2021/07/03 11:00:00;;;;;;;10.98;8.80;;;;;;;;;;4956386;28;20205;-70
2021/07/03 11:02:29;;;;;;;10.25;9.07;;;;;;;;;;4955845;28;20191;-70
2021/07/03 11:04:55;;;;;;;12.50;10.73;;;;;;;;;;4957571;28;20188;-70
2021/07/03 11:07:24;;;;;;;9.88;8.88;;;;;;;;;;4960940;28;20192;-71
2021/07/03 11:09:50;;;;;;;10.60;9.60;;;;;;;;;;4955453;28;20950;-70
2021/07/03 11:12:16;;;;;;;11.57;9.50;;;;;;;;;;4958861;28;20227;-71
2021/07/03 11:14:51;;;;;;;10.52;9.13;;;;;;;;;;4951392;28;20501;-69
2021/07/03 11:17:17;;;;;;;11.30;9.00;;;;;;;;;;4946588;28;20547;-70
2021/07/03 11:19:44;;;;;;;10.15;9.07;;;;;;;;;;4954848;28;20244;-69
2021/07/03 11:22:10;;;;;;;13.38;9.60;;;;;;;;;;4956019;28;20319;-70
2021/07/03 11:24:55;;;;;;;9.50;8.52;;;;;;;;;;4953252;28;20619;-70
2021/07/03 11:27:26;;;;;;;9.50;7.97;;;;;;;;;;4956963;28;20200;-70
2021/07/03 11:29:51;;;;;;;10.30;9.20;;;;;;;;;;4958165;28;20203;-70
2021/07/03 11:32:17;;;;;;;10.50;9.20;;;;;;;;;;4958323;28;20184;-70
2021/07/03 11:34:56;;;;;;;10.10;8.63;;;;;;;;;;4959564;28;20202;-70
2021/07/03 11:37:29;;;;;;;10.10;9.10;;;;;;;;;;4959025;28;20562;-69
2021/07/03 11:39:55;;;;;;;11.45;10.23;;;;;;;;;;4955337;28;21374;-70
2021/07/03 11:42:27;;;;;;;9.63;8.50;;;;;;;;;;4956865;28;20187;-70
2021/07/03 11:44:53;;;;;;;9.40;8.45;;;;;;;;;;4960922;28;20624;-70
2021/07/03 11:47:18;;;;;;;9.50;8.57;;;;;;;;;;4955704;28;20197;-70
2021/07/03 11:49:43;;;;;;;9.67;7.63;;;;;;;;;;4956367;28;20221;-69
2021/07/03 11:52:08;;;;;;;8.97;8.07;;;;;;;;;;4958951;28;20251;-69
2021/07/03 11:54:34;;;;;;;9.10;8.27;;;;;;;;;;4956328;28;20422;-69
2021/07/03 11:56:59;;;;;;;10.63;8.50;;;;;;;;;;4958986;28;20180;-69
2021/07/03 11:59:25;;;;;;;9.23;8.32;;;;;;;;;;4954815;28;20184;-70
2021/07/03 12:01:50;;;;;;;13.82;9.38;;;;;;;;;;4958766;28;20188;-70
2021/07/03 12:04:15;;;;;;;9.07;8.18;;;;;;;;;;4956411;28;20251;-70
2021/07/03 12:06:40;;;;;;;11.98;9.20;;;;;;;;;;4954762;28;20212;-70
2021/07/03 12:09:12;;;;;;;9.73;8.63;;;;;;;;;;4956796;28;20290;-69
2021/07/03 12:11:38;;;;;;;9.27;7.20;;;;;;;;;;4953545;28;21018;-69
2021/07/03 12:14:11;;;;;;;7.18;6.47;;;;;;;;;;4946355;28;20204;-69
2021/07/03 12:16:36;;;;;;;7.47;6.68;;;;;;;;;;4948264;28;20187;-70
2021/07/03 12:19:01;;;;;;;7.95;7.15;;;;;;;;;;4953011;28;20571;-70
2021/07/03 12:21:30;;;;;;;7.77;6.97;;;;;;;;;;4979397;23;20750;-73
2021/07/03 12:24:03;;;;;;;8.35;6.93;;;;;;;;;;4982508;28;20430;-72
2021/07/03 12:26:48;;;;;;;7.88;6.90;;;;;;;;;;4986222;28;20301;-73
2021/07/03 12:29:22;;;;;;;8.20;6.97;;;;;;;;;;4983423;28;20199;-73
2021/07/03 12:31:48;;;;;;;7.70;6.88;;;;;;;;;;4975672;28;20195;-73
2021/07/03 12:34:15;;;;;;;9.18;7.60;;;;;;;;;;4971342;28;20196;-72
2021/07/03 12:36:46;;;;;;;6.95;6.25;;;;;;;;;;4976098;28;20219;-73
2021/07/03 12:39:13;;;;;;;8.05;6.47;;;;;;;;;;4970463;28;20211;-73
2021/07/03 12:41:39;;;;;;;7.28;6.60;;;;;;;;;;4967936;28;20291;-73
2021/07/03 12:44:05;;;;;;;6.78;6.22;;;;;;;;;;4975504;28;20180;-73
2021/07/03 12:46:34;;;;;;;7.38;6.60;;;;;;;;;;4972059;28;20212;-73
2021/07/03 12:49:00;;;;;;;7.75;6.18;;;;;;;;;;4973198;28;20181;-72
2021/07/03 12:51:35;;;;;;;7.63;6.38;;;;;;;;;;4973513;28;20339;-73
2021/07/03 12:54:02;;;;;;;8.35;7.47;;;;;;;;;;4972367;28;20187;-73
2021/07/03 12:56:28;;;;;;;7.22;6.53;;;;;;;;;;4973813;28;20184;-72
2021/07/03 12:59:19;;;;;;;7.22;6.10;;;;;;;;;;4972669;28;20183;-72
2021/07/03 13:01:44;;;;;;;6.70;6.10;;;;;;;;;;4953186;28;20599;-72
2021/07/03 13:04:09;;;;;;;6.90;6.13;;;;;;;;;;4963000;28;20184;-72
2021/07/03 13:06:35;;;;;;;6.65;6.05;;;;;;;;;;4955500;28;20469;-73
2021/07/03 13:09:01;;;;;;;8.07;5.70;;;;;;;;;;4959207;28;20180;-72
2021/07/03 13:11:28;;;;;;;7.40;6.70;;;;;;;;;;4961835;28;20200;-73
2021/07/03 13:13:53;;;;;;;6.70;6.10;;;;;;;;;;4961301;28;20176;-71
2021/07/03 13:16:18;;;;;;;6.13;5.60;;;;;;;;;;4961069;28;20215;-71
2021/07/03 13:18:44;;;;;;;6.33;5.60;;;;;;;;;;4958778;28;20198;-72
2021/07/03 13:21:09;;;;;;;6.72;5.50;;;;;;;;;;4977608;28;20469;-73
2021/07/03 13:23:35;;;;;;;9.83;5.77;;;;;;;;;;4960791;28;20192;-73
2021/07/03 13:26:08;;;;;;;7.38;5.30;;;;;;;;;;4955268;28;20191;-73
2021/07/03 13:28:34;;;;;;;9.68;5.50;;;;;;;;;;4985570;28;20205;-73
2021/07/03 13:30:59;;;;;;;6.40;4.80;;;;;;;;;;4970280;28;20204;-73
2021/07/03 13:33:24;;;;;;;5.82;4.70;;;;;;;;;;4961593;28;20180;-73
2021/07/03 13:35:49;;;;;;;6.03;4.90;;;;;;;;;;4960811;28;20640;-73
2021/07/03 13:38:15;;;;;;;6.07;5.40;;;;;;;;;;4963251;28;20195;-71
2021/07/03 13:40:40;;;;;;;6.30;5.70;;;;;;;;;;4959981;28;20441;-73
2021/07/03 13:43:05;;;;;;;6.57;5.88;;;;;;;;;;4960908;28;20368;-72
2021/07/03 13:45:30;;;;;;;6.17;5.57;;;;;;;;;;4961426;28;20547;-73
2021/07/03 13:48:13;;;;;;;7.13;5.82;;;;;;;;;;4948372;28;20947;-73
2021/07/03 13:50:39;;;;;;;6.37;5.73;;;;;;;;;;4959774;28;20286;-73
2021/07/03 13:53:04;;;;;;;6.80;6.07;;;;;;;;;;4959885;28;20189;-72
2021/07/03 13:55:29;;;;;;;7.20;5.60;;;;;;;;;;4958319;28;20219;-71
2021/07/03 13:57:54;;;;;;;7.55;5.30;;;;;;;;;;4956405;28;20427;-72
2021/07/03 14:00:19;;;;;;;5.97;5.23;;;;;;;;;;4954994;28;20321;-73
2021/07/03 14:02:45;;;;;;;5.15;4.68;;;;;;;;;;4960521;28;20173;-73
2021/07/03 14:05:10;;;;;;;6.87;5.27;;;;;;;;;;4962321;28;21378;-71
2021/07/03 14:07:36;;;;;;;8.93;5.60;;;;;;;;;;4961251;28;20470;-73
2021/07/03 14:10:03;;;;;;;5.85;5.25;;;;;;;;;;4959181;28;20621;-72
2021/07/03 14:12:31;;;;;;;7.28;5.45;;;;;;;;;;4959350;28;20664;-73
2021/07/03 14:14:57;;;;;;;5.38;4.88;;;;;;;;;;4962104;28;20168;-73
2021/07/03 14:17:22;;;;;;;5.80;5.30;;;;;;;;;;4959848;28;20195;-73
2021/07/03 14:19:47;;;;;;;6.60;6.00;;;;;;;;;;4960673;28;20271;-72
2021/07/03 14:22:12;;;;;;;7.28;5.90;;;;;;;;;;4959370;28;20782;-72